createdAt,value
2018-01-27T00:01:33.260Z,21.42
2018-01-27T00:04:22.864Z,22.62
2018-01-27T00:06:51.172Z,22.73
2018-01-27T00:09:18.611Z,21.95
2018-01-27T00:11:52.947Z,25.33
2018-01-27T00:14:20.393Z,24.23
2018-01-27T00:16:47.836Z,27.75
2018-01-27T00:19:16.063Z,22.70
2018-01-27T00:21:43.536Z,24.10
2018-01-27T00:24:10.979Z,28.45
2018-01-27T00:26:38.516Z,22.30
2018-01-27T00:29:06.944Z,21.77
2018-01-27T00:31:34.392Z,23.38
2018-01-27T00:34:02.806Z,23.92
2018-01-27T00:36:31.004Z,22.98
2018-01-27T00:38:58.459Z,22.05
2018-01-27T00:41:25.919Z,21.02
2018-01-27T00:43:54.347Z,22.05
2018-01-27T00:46:21.953Z,22.20
2018-01-27T00:48:49.420Z,23.38
2018-01-27T00:51:16.885Z,20.20
2018-01-27T00:53:44.332Z,22.50
2018-01-27T00:56:11.825Z,20.42
2018-01-27T00:58:42.274Z,22.50
2018-01-27T01:01:09.699Z,22.25
2018-01-27T01:03:37.347Z,26.85
2018-01-27T01:06:05.133Z,21.85
2018-01-27T01:08:32.571Z,22.13
2018-01-27T01:11:00.008Z,21.60
2018-01-27T01:13:27.588Z,21.12
2018-01-27T01:15:55.029Z,22.10
2018-01-27T01:18:22.472Z,23.17
2018-01-27T01:20:50.779Z,22.00
2018-01-27T01:23:18.217Z,21.52
2018-01-27T01:25:45.685Z,22.70
2018-01-27T01:28:13.120Z,22.27
2018-01-27T01:30:41.327Z,21.80
2018-01-27T01:33:08.793Z,21.40
2018-01-27T01:35:36.238Z,22.83
2018-01-27T01:38:03.773Z,22.75
2018-01-27T01:40:31.970Z,21.92
2018-01-27T01:43:05.300Z,23.15
2018-01-27T01:45:32.891Z,22.40
2018-01-27T01:48:01.175Z,21.42
2018-01-27T01:50:29.386Z,21.33
2018-01-27T01:52:56.829Z,21.85
2018-01-27T01:55:24.670Z,22.55
2018-01-27T01:57:52.871Z,23.15
2018-01-27T02:00:20.672Z,21.27
2018-01-27T02:02:48.116Z,21.27
2018-01-27T02:05:15.558Z,20.42
2018-01-27T02:07:43.021Z,20.50
2018-01-27T02:10:11.436Z,22.85
2018-01-27T02:12:38.945Z,23.60
2018-01-27T02:15:06.412Z,23.52
2018-01-27T02:17:33.840Z,23.48
2018-01-27T02:20:02.064Z,24.02
2018-01-27T02:22:29.528Z,23.12
2018-01-27T02:24:56.967Z,22.55
2018-01-27T02:27:24.423Z,22.50
2018-01-27T02:29:51.869Z,23.05
2018-01-27T02:32:19.393Z,23.20
2018-01-27T02:34:46.837Z,22.95
2018-01-27T02:37:14.313Z,23.23
2018-01-27T02:39:42.523Z,22.58
2018-01-27T02:42:09.957Z,22.55
2018-01-27T02:44:38.290Z,24.08
2018-01-27T02:47:05.767Z,24.58
2018-01-27T02:49:33.508Z,24.48
2018-01-27T02:52:00.944Z,21.95
2018-01-27T02:54:32.331Z,21.27
2018-01-27T02:56:59.796Z,21.73
2018-01-27T02:59:27.255Z,22.40
2018-01-27T03:01:54.696Z,20.40
2018-01-27T03:04:22.175Z,20.27
2018-01-27T03:06:49.621Z,21.80
2018-01-27T03:09:17.064Z,20.62
2018-01-27T03:11:44.651Z,22.37
2018-01-27T03:14:12.127Z,22.65
2018-01-27T03:16:40.328Z,22.90
2018-01-27T03:19:07.764Z,21.87
2018-01-27T03:21:35.576Z,21.65
2018-01-27T03:24:03.045Z,22.30
2018-01-27T03:26:30.487Z,22.10
2018-01-27T03:28:58.138Z,21.37
2018-01-27T03:31:25.589Z,20.80
2018-01-27T03:33:53.020Z,21.37
2018-01-27T03:36:21.652Z,22.27
2018-01-27T03:38:49.106Z,21.40
2018-01-27T03:41:16.534Z,20.77
2018-01-27T03:43:44.056Z,19.48
2018-01-27T03:46:11.488Z,20.25
2018-01-27T03:48:38.936Z,20.98
2018-01-27T03:51:06.907Z,20.83
2018-01-27T03:53:34.343Z,20.92
2018-01-27T03:56:01.786Z,20.40
2018-01-27T03:58:29.253Z,19.67
2018-01-27T04:00:56.709Z,20.77
2018-01-27T04:03:24.145Z,22.25
2018-01-27T04:05:52.672Z,22.13
2018-01-27T04:08:20.107Z,21.30
2018-01-27T04:10:48.527Z,20.50
2018-01-27T04:13:16.203Z,22.23
2018-01-27T04:15:43.633Z,21.75
2018-01-27T04:18:11.088Z,21.75
2018-01-27T04:20:38.860Z,21.12
2018-01-27T04:23:06.292Z,22.23
2018-01-27T04:25:33.731Z,23.33
2018-01-27T04:28:01.195Z,22.15
2018-01-27T04:30:28.651Z,22.67
2018-01-27T04:32:56.143Z,22.10
2018-01-27T04:35:23.581Z,23.45
2018-01-27T04:37:51.096Z,23.08
2018-01-27T04:40:19.309Z,22.45
2018-01-27T04:42:48.145Z,20.90
2018-01-27T04:45:15.580Z,21.25
2018-01-27T04:47:43.030Z,21.48
2018-01-27T04:50:10.621Z,21.40
2018-01-27T04:52:38.056Z,21.55
2018-01-27T04:55:05.512Z,20.90
2018-01-27T04:57:32.948Z,23.25
2018-01-27T05:00:00.737Z,21.85
2018-01-27T05:02:28.171Z,22.45
2018-01-27T05:04:55.617Z,22.90
2018-01-27T05:07:23.149Z,22.40
2018-01-27T05:09:51.356Z,24.33
2018-01-27T05:12:41.694Z,23.20
2018-01-27T05:15:09.131Z,21.73
2018-01-27T05:17:36.574Z,23.17
2018-01-27T05:20:04.040Z,22.23
2018-01-27T05:22:31.484Z,23.85
2018-01-27T05:24:59.039Z,23.40
2018-01-27T05:27:26.468Z,22.73
2018-01-27T05:29:54.704Z,23.58
2018-01-27T05:32:22.143Z,21.80
2018-01-27T05:34:49.611Z,23.92
2018-01-27T05:37:17.052Z,21.87
2018-01-27T05:39:44.556Z,24.25
2018-01-27T05:42:14.052Z,23.45
2018-01-27T05:44:41.796Z,24.10
2018-01-27T05:47:09.229Z,25.00
2018-01-27T05:49:36.664Z,21.92
2018-01-27T05:52:04.891Z,22.13
2018-01-27T05:54:38.123Z,22.40
2018-01-27T05:57:06.336Z,23.17
2018-01-27T05:59:33.799Z,24.12
2018-01-27T06:02:01.250Z,23.73
2018-01-27T06:04:28.895Z,24.37
2018-01-27T06:06:56.336Z,25.33
2018-01-27T06:09:24.563Z,27.52
2018-01-27T06:11:52.012Z,24.48
2018-01-27T06:14:19.479Z,24.75
2018-01-27T06:16:46.928Z,24.23
2018-01-27T06:19:14.381Z,24.80
2018-01-27T06:21:44.309Z,26.35
2018-01-27T06:24:11.748Z,25.15
2018-01-27T06:26:39.192Z,24.60
2018-01-27T06:29:06.652Z,26.52
2018-01-27T06:31:34.089Z,24.80
2018-01-27T06:34:02.591Z,25.23
2018-01-27T06:36:30.032Z,25.45
2018-01-27T06:38:59.200Z,26.27
2018-01-27T06:41:26.760Z,26.45
2018-01-27T06:43:54.341Z,26.58
2018-01-27T06:46:22.571Z,25.65
2018-01-27T06:49:09.493Z,25.15
2018-01-27T06:51:36.936Z,24.05
2018-01-27T06:54:04.374Z,27.15
2018-01-27T06:56:33.608Z,25.08
2018-01-27T06:59:01.052Z,23.27
2018-01-27T07:01:28.497Z,26.80
2018-01-27T07:03:57.964Z,26.95
2018-01-27T07:06:26.173Z,26.02
2018-01-27T07:08:53.636Z,27.55
2018-01-27T07:11:21.095Z,25.95
2018-01-27T07:13:48.731Z,25.40
2018-01-27T07:16:21.968Z,26.87
2018-01-27T07:18:49.430Z,25.77
2018-01-27T07:21:16.868Z,27.00
2018-01-27T07:23:44.328Z,38.97
2018-01-27T07:26:11.759Z,28.62
2018-01-27T07:28:39.197Z,33.95
2018-01-27T07:31:07.472Z,27.98
2018-01-27T07:33:35.700Z,24.73
2018-01-27T07:36:03.140Z,26.95
2018-01-27T07:38:32.556Z,24.95
2018-01-27T07:41:00.041Z,26.60
2018-01-27T07:43:27.476Z,26.02
2018-01-27T07:45:55.016Z,27.37
2018-01-27T07:48:24.663Z,24.70
2018-01-27T07:50:52.101Z,26.75
2018-01-27T07:53:19.536Z,26.15
2018-01-27T07:55:47.279Z,27.48
2018-01-27T07:58:15.484Z,26.45
2018-01-27T08:00:42.925Z,26.60
2018-01-27T08:03:10.391Z,26.75
2018-01-27T08:05:37.821Z,31.95
2018-01-27T08:08:06.351Z,29.35
2018-01-27T08:10:33.792Z,31.05
2018-01-27T08:13:01.227Z,30.65
2018-01-27T08:15:29.029Z,34.28
2018-01-27T08:17:56.456Z,33.50
2018-01-27T08:20:23.892Z,33.53
2018-01-27T08:22:52.124Z,34.75
2018-01-27T08:25:20.083Z,38.47
2018-01-27T08:27:47.512Z,33.70
2018-01-27T08:30:14.956Z,37.40
2018-01-27T08:32:43.192Z,39.50
2018-01-27T08:35:10.636Z,39.65
2018-01-27T08:37:38.080Z,40.65
2018-01-27T08:40:05.707Z,42.45
2018-01-27T08:42:33.929Z,41.60
2018-01-27T08:45:01.368Z,42.08
2018-01-27T08:47:28.880Z,42.65
2018-01-27T08:49:56.316Z,42.15
2018-01-27T08:52:23.784Z,45.83
2018-01-27T08:54:51.224Z,45.42
2018-01-27T08:57:18.660Z,42.60
2018-01-27T08:59:46.170Z,44.10
2018-01-27T09:02:13.608Z,43.87
2018-01-27T09:04:44.883Z,47.35
2018-01-27T09:07:13.084Z,46.72
2018-01-27T09:09:40.545Z,48.03
2018-01-27T09:12:07.989Z,46.13
2018-01-27T09:14:35.604Z,46.70
2018-01-27T09:17:03.047Z,47.25
2018-01-27T09:19:30.499Z,48.63
2018-01-27T09:21:58.096Z,46.72
2018-01-27T09:24:25.559Z,46.88
2018-01-27T09:26:53.781Z,46.53
2018-01-27T09:29:22.906Z,47.08
2018-01-27T09:31:50.336Z,46.90
2018-01-27T09:34:18.555Z,48.80
2018-01-27T09:36:45.995Z,48.15
2018-01-27T09:39:14.912Z,47.45
2018-01-27T09:41:43.120Z,48.95
2018-01-27T09:44:14.370Z,43.30
2018-01-27T09:46:41.800Z,43.50
2018-01-27T09:49:10.033Z,46.47
2018-01-27T09:51:37.464Z,43.75
2018-01-27T09:54:05.253Z,45.47
2018-01-27T09:56:32.688Z,46.05
2018-01-27T09:59:00.132Z,47.58
2018-01-27T10:01:28.624Z,44.78
2018-01-27T10:03:56.051Z,45.30
2018-01-27T10:06:24.275Z,44.33
2018-01-27T10:08:51.740Z,41.72
2018-01-27T10:11:19.176Z,42.17
2018-01-27T10:13:46.641Z,40.55
2018-01-27T10:16:14.082Z,39.42
2018-01-27T10:18:41.668Z,40.08
2018-01-27T10:21:09.104Z,37.90
2018-01-27T10:23:37.543Z,39.70
2018-01-27T10:26:05.760Z,35.50
2018-01-27T10:28:33.239Z,35.95
2018-01-27T10:31:00.676Z,35.45
2018-01-27T10:33:28.103Z,36.13
2018-01-27T10:35:56.514Z,32.83
2018-01-27T10:38:23.949Z,32.60
2018-01-27T10:40:51.381Z,34.72
2018-01-27T10:43:18.924Z,34.40
2018-01-27T10:45:46.386Z,33.83
2018-01-27T10:48:13.823Z,33.15
2018-01-27T10:50:44.148Z,33.38
2018-01-27T10:53:11.592Z,35.47
2018-01-27T10:55:39.028Z,34.22
2018-01-27T10:58:06.488Z,31.23
2018-01-27T11:00:50.120Z,33.33
2018-01-27T11:03:17.556Z,33.30
2018-01-27T11:05:45.810Z,35.88
2018-01-27T11:08:13.351Z,34.03
2018-01-27T11:10:42.032Z,33.33
2018-01-27T11:13:09.522Z,31.67
2018-01-27T11:15:36.955Z,30.12
2018-01-27T11:18:04.417Z,33.08
2018-01-27T11:20:31.893Z,30.60
2018-01-27T11:22:59.324Z,28.90
2018-01-27T11:25:26.881Z,28.77
2018-01-27T11:27:54.316Z,29.85
2018-01-27T11:30:21.749Z,30.27
2018-01-27T11:32:49.981Z,29.98
2018-01-27T11:35:17.443Z,30.45
2018-01-27T11:37:44.877Z,29.73
2018-01-27T11:40:12.360Z,29.33
2018-01-27T11:42:39.808Z,29.87
2018-01-27T11:45:07.664Z,29.75
2018-01-27T11:47:35.091Z,29.98
2018-01-27T11:50:02.524Z,30.00
2018-01-27T11:52:30.880Z,27.15
2018-01-27T11:54:58.372Z,29.75
2018-01-27T11:57:25.776Z,28.90
2018-01-27T11:59:53.212Z,29.02
2018-01-27T12:02:20.980Z,29.48
2018-01-27T12:04:48.411Z,28.23
2018-01-27T12:07:15.848Z,30.65
2018-01-27T12:09:44.387Z,28.05
2018-01-27T12:12:11.852Z,28.95
2018-01-27T12:14:39.316Z,29.08
2018-01-27T12:17:06.752Z,27.58
2018-01-27T12:19:34.222Z,28.65
2018-01-27T12:22:01.664Z,28.90
2018-01-27T12:24:29.122Z,28.87
2018-01-27T12:26:56.560Z,28.55
2018-01-27T12:29:24.255Z,28.05
2018-01-27T12:31:51.697Z,28.87
2018-01-27T12:34:19.140Z,28.38
2018-01-27T12:36:46.596Z,29.00
2018-01-27T12:39:14.033Z,28.20
2018-01-27T12:41:42.291Z,28.27
2018-01-27T12:44:24.829Z,26.83
2018-01-27T12:46:53.461Z,27.13
2018-01-27T12:49:20.895Z,26.52
2018-01-27T12:51:48.525Z,27.27
2018-01-27T12:54:16.732Z,25.80
2018-01-27T12:56:44.163Z,26.50
2018-01-27T12:59:12.403Z,25.12
2018-01-27T13:01:39.831Z,26.70
2018-01-27T13:04:07.277Z,24.60
2018-01-27T13:06:34.845Z,26.70
2018-01-27T13:09:02.272Z,25.17
2018-01-27T13:11:30.718Z,27.00
2018-01-27T13:13:58.165Z,26.80
2018-01-27T13:16:25.612Z,27.42
2018-01-27T13:18:53.072Z,25.92
2018-01-27T13:21:20.512Z,26.15
2018-01-27T13:23:48.807Z,26.50
2018-01-27T13:26:16.272Z,26.67
2018-01-27T13:28:43.740Z,26.58
2018-01-27T13:31:11.593Z,26.50
2018-01-27T13:33:39.020Z,25.05
2018-01-27T13:36:06.447Z,24.17
2018-01-27T13:38:34.780Z,23.55
2018-01-27T13:41:02.264Z,22.98
2018-01-27T13:43:31.952Z,23.27
2018-01-27T13:45:59.389Z,23.75
2018-01-27T13:48:26.847Z,22.13
2018-01-27T13:50:54.324Z,23.98
2018-01-27T13:53:21.764Z,23.55
2018-01-27T13:55:49.272Z,22.25
2018-01-27T13:58:17.487Z,21.50
2018-01-27T14:00:44.928Z,22.67
2018-01-27T14:03:13.380Z,22.75
2018-01-27T14:05:41.596Z,23.30
2018-01-27T14:08:09.056Z,23.30
2018-01-27T14:10:36.494Z,23.40
2018-01-27T14:13:04.688Z,24.30
2018-01-27T14:15:32.207Z,22.92
2018-01-27T14:18:00.411Z,23.55
2018-01-27T14:20:28.208Z,23.67
2018-01-27T14:22:55.660Z,22.60
2018-01-27T14:25:23.092Z,22.52
2018-01-27T14:27:50.565Z,22.62
2018-01-27T14:30:18.003Z,22.60
2018-01-27T14:32:50.616Z,24.35
2018-01-27T14:35:18.065Z,24.37
2018-01-27T14:37:46.267Z,26.08
2018-01-27T14:40:14.133Z,25.33
2018-01-27T14:42:41.556Z,26.45
2018-01-27T14:45:09.031Z,24.87
2018-01-27T14:47:36.688Z,25.62
2018-01-27T14:50:04.117Z,40.63
2018-01-27T14:52:31.548Z,56.72
2018-01-27T14:55:00.817Z,65.78
2018-01-27T14:57:28.255Z,39.20
2018-01-27T14:59:55.707Z,29.10
2018-01-27T15:02:23.142Z,27.83
2018-01-27T15:04:55.662Z,26.02
2018-01-27T15:07:23.100Z,30.05
2018-01-27T15:09:51.695Z,25.62
2018-01-27T15:12:19.232Z,26.52
2018-01-27T15:14:46.663Z,28.48
2018-01-27T15:17:14.123Z,51.58
2018-01-27T15:19:41.565Z,29.17
2018-01-27T15:22:09.888Z,22.42
2018-01-27T15:24:37.328Z,24.40
2018-01-27T15:27:04.755Z,23.12
2018-01-27T15:29:32.980Z,24.12
2018-01-27T15:32:00.407Z,25.95
2018-01-27T15:34:27.852Z,25.35
2018-01-27T15:36:56.092Z,22.75
2018-01-27T15:39:23.945Z,24.65
2018-01-27T15:41:51.377Z,24.40
2018-01-27T15:44:18.807Z,24.00
2018-01-27T15:46:47.093Z,26.23
2018-01-27T15:49:15.321Z,25.65
2018-01-27T15:51:42.773Z,24.37
2018-01-27T15:54:10.228Z,24.83
2018-01-27T15:56:40.684Z,25.12
2018-01-27T15:59:08.285Z,23.42
2018-01-27T16:01:35.721Z,25.05
2018-01-27T16:04:03.998Z,25.25
2018-01-27T16:06:32.526Z,24.50
2018-01-27T16:08:59.968Z,23.02
2018-01-27T16:11:27.449Z,21.48
2018-01-27T16:13:55.037Z,22.87
2018-01-27T16:16:22.469Z,21.40
2018-01-27T16:18:50.190Z,22.20
2018-01-27T16:21:18.636Z,25.52
2018-01-27T16:23:46.118Z,28.15
2018-01-27T16:26:14.342Z,31.77
2018-01-27T16:28:41.813Z,26.30
2018-01-27T16:31:09.247Z,23.25
2018-01-27T16:33:36.735Z,22.17
2018-01-27T16:36:04.179Z,21.25
2018-01-27T16:38:31.620Z,20.65
2018-01-27T16:41:04.414Z,22.05
2018-01-27T16:43:41.791Z,23.10
2018-01-27T16:46:09.256Z,20.35
2018-01-27T16:48:36.688Z,20.85
2018-01-27T16:51:04.379Z,21.08
2018-01-27T16:53:31.823Z,19.10
2018-01-27T16:55:59.258Z,30.00
2018-01-27T16:58:26.761Z,25.85
2018-01-27T17:00:56.388Z,23.62
2018-01-27T17:03:23.820Z,27.05
2018-01-27T17:05:51.552Z,22.37
2018-01-27T17:08:18.988Z,22.55
2018-01-27T17:10:47.197Z,23.20
2018-01-27T17:13:14.651Z,21.77
2018-01-27T17:15:42.865Z,21.17
2018-01-27T17:18:10.458Z,19.87
2018-01-27T17:20:39.907Z,20.48
2018-01-27T17:23:07.351Z,20.80
2018-01-27T17:25:34.868Z,21.48
2018-01-27T17:28:02.296Z,19.42
2018-01-27T17:30:29.739Z,20.55
2018-01-27T17:32:58.427Z,19.62
2018-01-27T17:35:26.296Z,18.55
2018-01-27T17:37:53.734Z,18.77
2018-01-27T17:40:21.180Z,17.20
2018-01-27T17:42:49.643Z,17.35
2018-01-27T17:45:17.873Z,17.87
2018-01-27T17:47:45.307Z,18.05
2018-01-27T17:50:12.958Z,17.23
2018-01-27T17:52:40.397Z,18.25
2018-01-27T17:55:07.869Z,17.77
2018-01-27T17:57:35.395Z,17.75
2018-01-27T18:00:03.005Z,18.55
2018-01-27T18:02:34.632Z,18.23
2018-01-27T18:05:02.846Z,17.17
2018-01-27T18:07:31.169Z,18.33
2018-01-27T18:09:59.554Z,17.00
2018-01-27T18:12:28.100Z,17.33
2018-01-27T18:14:55.564Z,15.15
2018-01-27T18:17:23.008Z,16.02
2018-01-27T18:19:50.468Z,16.02
2018-01-27T18:22:17.900Z,14.07
2018-01-27T18:24:46.818Z,13.20
2018-01-27T18:27:14.278Z,13.98
2018-01-27T18:29:41.748Z,14.00
2018-01-27T18:32:10.266Z,13.85
2018-01-27T18:34:37.761Z,14.35
2018-01-27T18:37:19.622Z,14.75
2018-01-27T18:40:07.507Z,14.50
2018-01-27T19:10:09.432Z,12.13
2018-01-27T19:12:37.649Z,12.93
2018-01-27T19:15:05.308Z,11.18
2018-01-27T19:17:32.767Z,12.60
2018-01-27T19:20:03.238Z,9.75
2018-01-27T19:22:30.672Z,11.40
2018-01-27T19:24:59.312Z,11.20
2018-01-27T19:27:26.762Z,13.57
2018-01-27T19:29:54.202Z,16.60
2018-01-27T19:32:21.700Z,11.90
2018-01-27T19:34:49.139Z,12.45
2018-01-27T19:37:16.604Z,12.25
2018-01-27T19:39:44.072Z,12.00
2018-01-27T19:42:11.533Z,10.90
2018-01-27T19:44:39.035Z,10.40
2018-01-27T19:47:07.356Z,11.85
2018-01-27T19:49:34.788Z,11.70
2018-01-27T19:52:02.227Z,11.52
2018-01-27T19:54:29.993Z,21.87
2018-01-27T19:56:57.440Z,17.08
2018-01-27T19:59:25.656Z,12.00
2018-01-27T20:02:02.111Z,12.07
2018-01-27T20:04:29.777Z,12.05
2018-01-27T20:06:57.324Z,12.88
2018-01-27T20:09:24.831Z,12.05
2018-01-27T20:11:52.224Z,12.55
2018-01-27T20:14:19.680Z,11.10
2018-01-27T20:16:47.882Z,11.48
2018-01-27T20:19:15.664Z,11.20
2018-01-27T20:21:43.243Z,11.40
2018-01-27T20:24:10.697Z,11.50
2018-01-27T20:26:38.249Z,11.60
2018-01-27T20:29:05.680Z,10.93
2018-01-27T20:31:33.294Z,11.00
2018-01-27T20:34:00.838Z,12.05
2018-01-27T20:36:28.350Z,12.20
2018-01-27T20:38:55.851Z,12.20
2018-01-27T20:41:23.346Z,12.10
2018-01-27T20:43:50.894Z,12.75
2018-01-27T20:46:18.362Z,11.73
2018-01-27T20:48:46.086Z,12.63
2018-01-27T20:51:13.577Z,11.60
2018-01-27T20:53:41.825Z,21.35
2018-01-27T20:56:09.569Z,13.50
2018-01-27T20:58:37.005Z,14.98
2018-01-27T21:01:04.439Z,13.50
2018-01-27T21:03:32.780Z,11.77
2018-01-27T21:06:00.212Z,12.35
2018-01-27T21:08:47.528Z,12.35
2018-01-27T21:11:15.723Z,11.73
2018-01-27T21:13:43.180Z,12.52
2018-01-27T21:16:10.628Z,12.18
2018-01-27T21:18:38.218Z,15.90
2018-01-27T21:21:05.656Z,18.45
2018-01-27T21:23:33.107Z,11.60
2018-01-27T21:26:00.550Z,19.80
2018-01-27T21:28:30.995Z,12.52
2018-01-27T21:30:58.448Z,12.48
2018-01-27T21:33:25.912Z,11.25
2018-01-27T21:35:53.508Z,14.05
2018-01-27T21:38:21.272Z,11.95
2018-01-27T21:40:48.713Z,13.05
2018-01-27T21:43:21.391Z,11.10
2018-01-27T21:45:48.894Z,11.23
2018-01-27T21:48:17.092Z,10.90
2018-01-27T21:50:44.581Z,12.00
2018-01-27T21:53:12.454Z,10.40
2018-01-27T21:55:39.935Z,10.75
2018-01-27T21:58:07.381Z,10.52
2018-01-27T22:00:41.580Z,10.40
2018-01-27T22:03:09.013Z,10.15
2018-01-27T22:06:00.268Z,11.07
2018-01-27T22:08:27.805Z,10.63
2018-01-27T22:10:55.273Z,10.85
2018-01-27T22:13:22.798Z,10.90
2018-01-27T22:15:50.286Z,11.35
2018-01-27T22:18:17.760Z,10.95
2018-01-27T22:21:07.918Z,11.40
2018-01-27T22:23:35.440Z,11.05
2018-01-27T22:26:02.868Z,10.50
2018-01-27T22:28:30.323Z,11.35
2018-01-27T22:30:57.775Z,10.82
2018-01-27T22:33:25.229Z,10.93
2018-01-27T22:35:52.668Z,10.98
2018-01-27T22:38:20.125Z,10.80
2018-01-27T22:40:47.760Z,10.85
2018-01-27T22:43:37.809Z,10.30
2018-01-27T22:46:05.797Z,9.80
2018-01-27T22:48:33.960Z,11.60
2018-01-27T22:51:02.292Z,10.88
2018-01-27T22:53:29.747Z,11.77
2018-01-27T22:55:57.176Z,10.68
2018-01-27T22:58:27.226Z,9.75
2018-01-27T23:04:02.132Z,10.13
2018-01-27T23:06:30.524Z,9.98
2018-01-27T23:08:57.956Z,10.45
2018-01-27T23:11:26.161Z,10.10
2018-01-27T23:13:53.732Z,10.63
2018-01-27T23:16:21.163Z,10.32
2018-01-27T23:18:48.623Z,10.05
2018-01-27T23:21:16.060Z,10.73
2018-01-27T23:23:44.283Z,10.48
2018-01-27T23:26:11.729Z,9.48
2018-01-27T23:28:39.196Z,9.93
2018-01-27T23:31:07.635Z,10.15
2018-01-27T23:33:35.835Z,9.80
2018-01-27T23:36:03.424Z,8.85
2018-01-27T23:38:30.923Z,9.80
2018-01-27T23:40:58.384Z,8.80
2018-01-27T23:43:26.619Z,8.77
2018-01-27T23:45:54.252Z,9.45
2018-01-27T23:48:21.688Z,9.20
2018-01-27T23:50:49.894Z,8.63
2018-01-27T23:53:17.424Z,8.23
2018-01-27T23:55:45.639Z,9.20
2018-01-27T23:58:13.099Z,8.45
